createdAt,value
2022-08-25T00:02:01.977Z,20.75
2022-08-25T00:04:35.267Z,20.73
2022-08-25T00:07:08.575Z,20.68
2022-08-25T00:09:41.462Z,20.60
2022-08-25T00:12:12.382Z,20.57
2022-08-25T00:14:43.069Z,20.53
2022-08-25T00:17:13.560Z,20.53
2022-08-25T00:19:43.786Z,20.53
2022-08-25T00:22:13.931Z,20.51
2022-08-25T00:24:46.766Z,20.51
2022-08-25T00:27:18.121Z,20.52
2022-08-25T00:29:48.420Z,20.50
2022-08-25T00:32:18.611Z,20.50
2022-08-25T00:34:49.735Z,20.49
2022-08-25T00:37:20.134Z,20.45
2022-08-25T00:39:55.190Z,20.45
2022-08-25T00:42:25.745Z,20.40
2022-08-25T00:44:56.460Z,20.39
2022-08-25T00:47:26.869Z,20.40
2022-08-25T00:50:01.754Z,20.39
2022-08-25T00:52:40.315Z,20.37
2022-08-25T00:55:21.446Z,20.35
2022-08-25T00:57:58.725Z,20.32
2022-08-25T01:00:36.035Z,20.32
2022-08-25T01:03:07.089Z,20.32
2022-08-25T01:05:38.090Z,20.30
2022-08-25T01:08:09.493Z,20.30
2022-08-25T01:10:47.533Z,20.26
2022-08-25T01:13:23.942Z,20.24
2022-08-25T01:15:59.198Z,20.23
2022-08-25T01:18:30.696Z,20.22
2022-08-25T01:21:03.554Z,20.20
2022-08-25T01:23:34.325Z,20.17
2022-08-25T01:26:08.819Z,20.12
2022-08-25T01:29:00.821Z,20.07
2022-08-25T01:31:31.922Z,20.03
2022-08-25T01:34:03.154Z,20.06
2022-08-25T01:36:38.226Z,20.03
2022-08-25T01:39:09.510Z,20.03
2022-08-25T01:41:53.356Z,20.01
2022-08-25T01:44:23.777Z,19.97
2022-08-25T01:46:55.156Z,19.97
2022-08-25T01:49:25.789Z,19.97
2022-08-25T01:52:04.311Z,19.89
2022-08-25T01:54:34.697Z,19.89
2022-08-25T01:57:06.564Z,19.89
2022-08-25T01:59:36.865Z,19.86
2022-08-25T02:02:08.843Z,19.82
2022-08-25T02:04:44.424Z,19.82
2022-08-25T02:07:17.675Z,19.81
2022-08-25T02:09:47.986Z,19.80
2022-08-25T02:12:18.282Z,19.77
2022-08-25T02:14:49.298Z,19.74
2022-08-25T02:17:20.134Z,19.68
2022-08-25T02:19:50.405Z,19.65
2022-08-25T02:22:23.357Z,19.61
2022-08-25T02:24:53.561Z,19.60
2022-08-25T02:27:24.336Z,19.61
2022-08-25T02:29:54.561Z,19.60
2022-08-25T02:32:24.725Z,19.61
2022-08-25T02:34:54.970Z,19.61
2022-08-25T02:37:27.769Z,19.61
2022-08-25T02:39:57.955Z,19.60
2022-08-25T02:42:28.246Z,19.60
2022-08-25T02:44:58.835Z,19.61
2022-08-25T02:47:29.584Z,19.60
2022-08-25T02:49:59.845Z,19.57
2022-08-25T02:52:32.607Z,19.54
2022-08-25T02:55:04.230Z,19.52
2022-08-25T02:57:34.722Z,19.54
2022-08-25T03:00:06.977Z,19.54
2022-08-25T03:02:37.547Z,19.50
2022-08-25T03:05:09.519Z,19.39
2022-08-25T03:07:42.360Z,19.39
2022-08-25T03:10:18.993Z,19.37
2022-08-25T03:12:49.935Z,19.36
2022-08-25T03:15:21.312Z,19.37
2022-08-25T03:17:52.300Z,19.35
2022-08-25T03:20:23.934Z,19.36
2022-08-25T03:22:56.909Z,19.35
2022-08-25T03:25:39.610Z,19.35
2022-08-25T03:28:11.374Z,19.34
2022-08-25T03:30:41.702Z,19.31
2022-08-25T03:33:12.635Z,19.29
2022-08-25T03:35:44.223Z,19.29
2022-08-25T03:38:17.122Z,19.25
2022-08-25T03:40:47.667Z,19.25
2022-08-25T03:43:18.461Z,19.25
2022-08-25T03:45:49.677Z,19.24
2022-08-25T03:48:21.089Z,19.24
2022-08-25T03:50:54.952Z,19.24
2022-08-25T03:53:28.155Z,19.25
2022-08-25T03:55:58.778Z,19.21
2022-08-25T03:58:29.093Z,19.20
2022-08-25T04:01:00.630Z,19.18
2022-08-25T04:03:30.995Z,19.15
2022-08-25T04:06:04.657Z,19.17
2022-08-25T04:08:38.052Z,19.17
2022-08-25T04:11:14.131Z,19.19
2022-08-25T04:13:45.814Z,19.26
2022-08-25T04:16:19.446Z,19.26
2022-08-25T04:18:51.714Z,19.20
2022-08-25T04:21:23.717Z,19.19
2022-08-25T04:23:59.166Z,19.16
2022-08-25T04:26:33.157Z,19.22
2022-08-25T04:29:05.162Z,19.23
2022-08-25T04:31:36.464Z,19.27
2022-08-25T04:34:29.447Z,19.30
2022-08-25T04:36:58.593Z,19.32
2022-08-25T04:39:32.130Z,19.38
2022-08-25T04:42:03.399Z,19.37
2022-08-25T04:44:34.133Z,19.38
2022-08-25T04:47:04.186Z,19.35
2022-08-25T04:49:34.380Z,19.34
2022-08-25T04:52:04.652Z,19.43
2022-08-25T04:54:40.649Z,19.49
2022-08-25T04:57:10.844Z,19.51
2022-08-25T04:59:41.476Z,19.54
2022-08-25T05:02:11.702Z,19.61
2022-08-25T05:04:42.028Z,19.65
2022-08-25T05:07:12.215Z,19.72
2022-08-25T05:09:45.286Z,19.81
2022-08-25T05:12:15.438Z,19.90
2022-08-25T05:14:46.314Z,20.00
2022-08-25T05:17:16.566Z,20.08
2022-08-25T05:19:47.348Z,20.18
2022-08-25T05:22:17.298Z,20.24
2022-08-25T05:24:51.280Z,20.36
2022-08-25T05:27:21.658Z,20.46
2022-08-25T05:29:52.152Z,20.57
2022-08-25T05:32:22.453Z,20.68
2022-08-25T05:34:52.608Z,20.76
2022-08-25T05:37:22.990Z,20.87
2022-08-25T05:39:55.869Z,20.96
2022-08-25T05:42:26.265Z,21.08
2022-08-25T05:44:56.496Z,21.21
2022-08-25T05:47:26.706Z,21.29
2022-08-25T05:49:56.890Z,21.40
2022-08-25T05:52:31.021Z,21.51
2022-08-25T05:55:03.849Z,21.59
2022-08-25T05:57:34.063Z,21.63
2022-08-25T06:00:07.397Z,21.71
2022-08-25T06:02:44.196Z,21.86
2022-08-25T06:05:17.592Z,22.09
2022-08-25T06:07:48.107Z,22.29
2022-08-25T06:10:22.290Z,22.40
2022-08-25T06:12:52.588Z,22.62
2022-08-25T06:15:25.541Z,22.68
2022-08-25T06:18:01.606Z,22.77
2022-08-25T06:20:34.836Z,23.01
2022-08-25T06:23:05.005Z,23.12
2022-08-25T06:25:37.755Z,23.14
2022-08-25T06:28:07.932Z,23.30
2022-08-25T06:30:38.076Z,23.55
2022-08-25T06:33:08.241Z,23.58
2022-08-25T06:35:38.448Z,23.82
2022-08-25T06:38:08.692Z,24.14
2022-08-25T06:40:41.751Z,24.38
2022-08-25T06:43:11.915Z,24.60
2022-08-25T06:45:44.204Z,24.80
2022-08-25T06:48:14.396Z,25.06
2022-08-25T06:50:45.481Z,25.17
2022-08-25T06:53:16.190Z,25.34
2022-08-25T06:55:48.991Z,25.48
2022-08-25T06:58:19.321Z,25.66
2022-08-25T07:00:49.386Z,25.83
2022-08-25T07:05:56.608Z,26.32
2022-08-25T07:08:26.763Z,26.56
2022-08-25T07:10:59.656Z,26.73
2022-08-25T07:13:32.219Z,26.78
2022-08-25T07:16:02.572Z,27.01
2022-08-25T07:18:33.077Z,27.21
2022-08-25T07:21:03.388Z,27.42
2022-08-25T07:23:34.212Z,27.66
2022-08-25T07:26:36.292Z,27.78
2022-08-25T07:29:05.685Z,27.94
2022-08-25T07:31:35.966Z,28.10
2022-08-25T07:34:20.108Z,28.27
2022-08-25T07:36:50.519Z,28.48
2022-08-25T07:39:22.087Z,28.67
2022-08-25T07:41:55.640Z,28.92
2022-08-25T07:44:28.209Z,29.03
2022-08-25T07:46:59.134Z,29.14
2022-08-25T07:49:35.764Z,29.24
2022-08-25T07:52:09.900Z,29.46
2022-08-25T07:54:40.942Z,29.67
2022-08-25T07:57:14.115Z,29.84
2022-08-25T07:59:45.629Z,30.05
2022-08-25T08:02:18.922Z,30.21
2022-08-25T08:04:51.290Z,30.54
2022-08-25T08:07:23.275Z,30.85
2022-08-25T08:10:10.674Z,31.15
2022-08-25T08:12:47.642Z,31.64
2022-08-25T08:15:17.973Z,32.09
2022-08-25T08:17:50.024Z,32.66
2022-08-25T08:20:23.268Z,33.40
2022-08-25T08:22:53.934Z,34.02
2022-08-25T08:25:27.220Z,34.69
2022-08-25T08:28:00.661Z,35.39
2022-08-25T08:30:31.465Z,36.03
2022-08-25T08:33:11.164Z,36.70
2022-08-25T08:35:42.963Z,37.27
2022-08-25T08:38:18.488Z,37.56
2022-08-25T08:41:22.921Z,38.08
2022-08-25T08:44:03.689Z,38.66
2022-08-25T08:46:45.409Z,36.98
2022-08-25T08:49:27.966Z,35.48
2022-08-25T08:52:04.272Z,34.29
2022-08-25T08:54:41.254Z,33.56
2022-08-25T08:57:17.371Z,34.32
2022-08-25T08:59:57.767Z,35.49
2022-08-25T09:02:39.313Z,34.12
2022-08-25T09:05:25.870Z,35.34
2022-08-25T09:08:01.031Z,36.50
2022-08-25T09:10:46.051Z,35.75
2022-08-25T09:13:32.810Z,35.51
2022-08-25T09:16:33.944Z,34.36
2022-08-25T09:19:25.053Z,35.46
2022-08-25T09:22:01.127Z,34.96
2022-08-25T09:24:52.253Z,34.47
2022-08-25T09:27:34.850Z,35.33
2022-08-25T09:30:11.488Z,34.91
2022-08-25T09:32:52.488Z,34.33
2022-08-25T09:35:26.983Z,33.81
2022-08-25T09:38:03.389Z,32.87
2022-08-25T09:40:37.380Z,34.61
2022-08-25T09:43:22.894Z,36.17
2022-08-25T09:46:02.498Z,35.98
2022-08-25T09:48:46.583Z,34.72
2022-08-25T09:51:28.504Z,33.67
2022-08-25T09:54:10.735Z,35.00
2022-08-25T09:56:53.657Z,33.54
2022-08-25T09:59:34.547Z,32.66
2022-08-25T10:02:09.197Z,33.23
2022-08-25T10:04:43.214Z,35.23
2022-08-25T10:07:28.356Z,36.51
2022-08-25T10:10:02.033Z,36.63
2022-08-25T10:12:42.466Z,36.61
2022-08-25T10:15:29.431Z,37.59
2022-08-25T10:18:23.549Z,37.20
2022-08-25T10:21:13.768Z,38.12
2022-08-25T10:23:51.765Z,38.43
2022-08-25T10:26:35.030Z,38.92
2022-08-25T10:29:45.489Z,37.61
2022-08-25T10:32:22.316Z,36.99
2022-08-25T10:34:58.043Z,37.65
2022-08-25T10:37:45.313Z,37.45
2022-08-25T10:40:26.582Z,38.28
2022-08-25T10:43:09.349Z,38.68
2022-08-25T10:45:45.647Z,39.00
2022-08-25T10:49:01.234Z,37.69
2022-08-25T10:51:42.443Z,36.23
2022-08-25T10:54:29.702Z,35.70
2022-08-25T10:57:10.733Z,36.39
2022-08-25T11:00:04.013Z,37.53
2022-08-25T11:03:07.862Z,37.91
2022-08-25T11:05:44.687Z,38.80
2022-08-25T11:08:22.528Z,39.28
2022-08-25T11:11:08.995Z,37.71
2022-08-25T11:13:48.221Z,38.55
2022-08-25T11:16:25.392Z,37.99
2022-08-25T11:19:00.806Z,38.32
2022-08-25T11:21:45.676Z,38.69
2022-08-25T11:24:44.330Z,37.44
2022-08-25T11:27:25.309Z,36.53
2022-08-25T11:30:07.194Z,36.53
2022-08-25T11:32:38.252Z,38.76
2022-08-25T11:35:13.192Z,39.95
2022-08-25T11:38:00.022Z,41.04
2022-08-25T11:40:44.543Z,42.04
2022-08-25T11:43:43.400Z,40.74
2022-08-25T11:46:44.176Z,39.26
2022-08-25T11:49:48.889Z,40.18
2022-08-25T11:52:54.252Z,38.39
2022-08-25T11:55:32.797Z,39.86
2022-08-25T11:58:50.560Z,39.86
2022-08-25T12:02:11.716Z,38.37
2022-08-25T12:04:45.460Z,40.69
2022-08-25T12:07:29.918Z,42.12
2022-08-25T12:10:21.583Z,43.04
2022-08-25T12:13:10.432Z,43.68
2022-08-25T12:16:04.012Z,44.58
2022-08-25T12:18:50.479Z,43.66
2022-08-25T12:21:36.220Z,42.81
2022-08-25T12:24:16.174Z,42.18
2022-08-25T12:26:57.694Z,40.92
2022-08-25T12:29:35.965Z,39.51
2022-08-25T12:32:36.827Z,38.45
2022-08-25T12:35:41.202Z,37.60
2022-08-25T12:38:19.178Z,39.29
2022-08-25T12:41:07.645Z,41.22
2022-08-25T12:43:40.878Z,42.03
2022-08-25T12:46:40.608Z,42.55
2022-08-25T12:49:38.652Z,41.17
2022-08-25T12:52:14.721Z,39.67
2022-08-25T12:54:53.891Z,40.33
2022-08-25T12:57:44.864Z,41.74
2022-08-25T13:00:23.760Z,41.79
2022-08-25T13:03:24.588Z,41.74
2022-08-25T13:06:36.426Z,39.48
2022-08-25T13:09:45.803Z,38.28
2022-08-25T13:12:20.564Z,37.65
2022-08-25T13:14:57.867Z,39.94
2022-08-25T13:17:30.173Z,40.15
2022-08-25T13:20:25.770Z,41.77
2022-08-25T13:23:04.113Z,40.63
2022-08-25T13:25:35.093Z,41.77
2022-08-25T13:28:10.954Z,40.09
2022-08-25T13:30:41.973Z,40.25
2022-08-25T13:33:25.217Z,40.28
2022-08-25T13:36:18.848Z,41.49
2022-08-25T13:38:50.582Z,42.54
2022-08-25T13:41:29.547Z,43.31
2022-08-25T13:44:04.223Z,42.28
2022-08-25T13:46:35.018Z,41.79
2022-08-25T13:49:11.510Z,40.75
2022-08-25T13:51:52.730Z,39.38
2022-08-25T13:54:35.227Z,38.40
2022-08-25T13:57:19.921Z,37.77
2022-08-25T13:59:55.558Z,39.42
2022-08-25T14:02:49.939Z,39.28
2022-08-25T14:05:36.646Z,40.35
2022-08-25T14:08:23.617Z,39.70
2022-08-25T14:11:15.026Z,37.96
2022-08-25T14:13:48.023Z,37.00
2022-08-25T14:16:27.169Z,36.32
2022-08-25T14:19:03.666Z,36.00
2022-08-25T14:21:36.061Z,36.76
2022-08-25T14:24:11.972Z,37.28
2022-08-25T14:26:53.754Z,36.37
2022-08-25T14:29:25.223Z,35.69
2022-08-25T14:31:55.633Z,35.28
2022-08-25T14:34:30.290Z,34.71
2022-08-25T14:37:01.821Z,34.36
2022-08-25T14:39:35.320Z,34.90
2022-08-25T14:42:08.930Z,37.20
2022-08-25T14:44:39.575Z,38.53
2022-08-25T14:47:11.277Z,39.44
2022-08-25T14:49:46.339Z,39.88
2022-08-25T14:52:24.462Z,40.37
2022-08-25T14:54:54.623Z,40.56
2022-08-25T14:57:28.054Z,40.96
2022-08-25T14:59:58.637Z,40.97
2022-08-25T15:02:29.368Z,40.84
2022-08-25T15:05:05.951Z,38.62
2022-08-25T15:07:50.079Z,37.00
2022-08-25T15:10:21.790Z,35.93
2022-08-25T15:12:54.949Z,35.20
2022-08-25T15:15:26.586Z,34.65
2022-08-25T15:17:59.264Z,34.89
2022-08-25T15:20:31.275Z,34.24
2022-08-25T15:23:02.071Z,33.91
2022-08-25T15:25:32.399Z,33.76
2022-08-25T15:28:09.771Z,34.53
2022-08-25T15:30:44.491Z,36.02
2022-08-25T15:33:16.222Z,36.40
2022-08-25T15:35:46.561Z,36.22
2022-08-25T15:38:20.761Z,36.24
2022-08-25T15:40:50.944Z,36.92
2022-08-25T15:43:23.821Z,37.06
2022-08-25T15:45:55.998Z,37.01
2022-08-25T15:48:26.354Z,36.51
2022-08-25T15:51:00.995Z,35.78
2022-08-25T15:53:32.548Z,35.33
2022-08-25T15:56:04.879Z,34.59
2022-08-25T15:58:39.934Z,34.05
2022-08-25T16:01:24.701Z,33.40
2022-08-25T16:03:55.516Z,32.95
2022-08-25T16:06:27.422Z,32.57
2022-08-25T16:08:59.038Z,32.32
2022-08-25T16:11:31.593Z,32.11
2022-08-25T16:14:05.227Z,31.95
2022-08-25T16:16:36.673Z,31.81
2022-08-25T16:19:07.714Z,31.74
2022-08-25T16:21:42.215Z,31.65
2022-08-25T16:24:17.888Z,31.61
2022-08-25T16:26:48.823Z,31.55
2022-08-25T16:29:22.792Z,31.44
2022-08-25T16:31:55.154Z,31.37
2022-08-25T16:34:28.542Z,31.17
2022-08-25T16:37:01.336Z,31.03
2022-08-25T16:39:31.609Z,30.91
2022-08-25T16:42:01.848Z,30.83
2022-08-25T16:44:34.824Z,30.80
2022-08-25T16:47:06.057Z,30.77
2022-08-25T16:49:39.754Z,30.67
2022-08-25T16:52:30.963Z,30.65
2022-08-25T16:55:14.945Z,30.40
2022-08-25T16:57:48.301Z,30.34
2022-08-25T17:00:25.317Z,30.30
2022-08-25T17:02:59.629Z,30.24
2022-08-25T17:05:30.853Z,30.20
2022-08-25T17:08:15.764Z,30.15
2022-08-25T17:10:46.478Z,30.02
2022-08-25T17:13:17.257Z,29.99
2022-08-25T17:15:52.301Z,29.88
2022-08-25T17:18:22.868Z,29.84
2022-08-25T17:21:02.183Z,29.80
2022-08-25T17:23:34.923Z,29.71
2022-08-25T17:26:06.190Z,29.62
2022-08-25T17:28:36.956Z,29.51
2022-08-25T17:31:10.488Z,29.43
2022-08-25T17:33:41.084Z,29.36
2022-08-25T17:36:17.032Z,29.34
2022-08-25T17:38:47.990Z,29.24
2022-08-25T17:41:18.250Z,29.21
2022-08-25T17:43:48.427Z,29.14
2022-08-25T17:46:21.793Z,29.10
2022-08-25T17:48:52.389Z,29.06
2022-08-25T17:51:23.721Z,29.02
2022-08-25T17:53:55.295Z,28.92
2022-08-25T17:56:27.929Z,28.84
2022-08-25T17:58:59.383Z,28.78
2022-08-25T18:01:40.154Z,28.74
2022-08-25T18:04:17.192Z,28.70
2022-08-25T18:06:48.842Z,28.64
2022-08-25T18:09:20.137Z,28.59
2022-08-25T18:11:50.561Z,28.57
2022-08-25T18:14:25.216Z,28.52
2022-08-25T18:17:04.050Z,28.41
2022-08-25T18:19:35.014Z,28.35
2022-08-25T18:22:06.330Z,28.26
2022-08-25T18:24:36.920Z,28.23
2022-08-25T18:27:07.758Z,28.23
2022-08-25T18:29:37.930Z,28.20
2022-08-25T18:32:13.529Z,28.10
2022-08-25T18:34:43.932Z,28.03
2022-08-25T18:37:27.108Z,27.96
2022-08-25T18:40:10.214Z,27.90
2022-08-25T18:42:40.578Z,27.81
2022-08-25T18:45:13.247Z,27.75
2022-08-25T18:47:46.190Z,27.67
2022-08-25T18:50:16.451Z,27.61
2022-08-25T18:52:46.375Z,27.55
2022-08-25T18:55:16.621Z,27.48
2022-08-25T18:57:47.544Z,27.46
2022-08-25T19:00:24.334Z,27.49
2022-08-25T19:02:59.818Z,27.40
2022-08-25T19:05:35.601Z,27.43
2022-08-25T19:08:09.385Z,27.34
2022-08-25T19:10:40.856Z,27.31
2022-08-25T19:13:12.540Z,27.29
2022-08-25T19:15:44.590Z,27.25
2022-08-25T19:18:17.857Z,27.23
2022-08-25T19:20:49.367Z,27.23
2022-08-25T19:23:22.606Z,27.24
2022-08-25T19:25:52.868Z,27.25
2022-08-25T19:28:23.347Z,27.24
2022-08-25T19:30:54.663Z,27.23
2022-08-25T19:33:42.254Z,27.15
2022-08-25T19:36:16.692Z,27.06
2022-08-25T19:38:47.669Z,27.05
2022-08-25T19:41:18.113Z,27.03
2022-08-25T19:43:56.127Z,27.02
2022-08-25T19:46:33.353Z,26.94
2022-08-25T19:49:12.581Z,26.93
2022-08-25T19:51:46.975Z,26.83
2022-08-25T19:54:24.776Z,26.81
2022-08-25T19:56:55.896Z,26.79
2022-08-25T19:59:36.607Z,26.81
2022-08-25T20:02:16.441Z,26.79
2022-08-25T20:04:54.631Z,26.82
2022-08-25T20:07:27.921Z,26.72
2022-08-25T20:09:59.605Z,26.71
2022-08-25T20:12:31.356Z,26.63
2022-08-25T20:15:02.120Z,26.71
2022-08-25T20:17:32.096Z,26.65
2022-08-25T20:20:09.878Z,26.61
2022-08-25T20:22:41.199Z,26.61
2022-08-25T20:25:13.461Z,26.57
2022-08-25T20:27:47.074Z,26.55
2022-08-25T20:30:22.396Z,26.56
2022-08-25T20:32:53.488Z,26.58
2022-08-25T20:35:29.350Z,26.53
2022-08-25T20:38:01.106Z,26.46
2022-08-25T20:40:33.583Z,26.51
2022-08-25T20:43:04.934Z,26.47
2022-08-25T20:45:40.685Z,26.38
2022-08-25T20:48:11.073Z,26.36
2022-08-25T20:50:44.387Z,26.34
2022-08-25T20:53:15.396Z,26.32
2022-08-25T20:55:45.958Z,26.32
2022-08-25T20:58:17.200Z,26.25
2022-08-25T21:00:48.133Z,26.19
2022-08-25T21:03:18.417Z,26.19
2022-08-25T21:05:54.153Z,26.12
2022-08-25T21:08:25.451Z,26.08
2022-08-25T21:10:55.729Z,26.04
2022-08-25T21:13:25.980Z,25.99
2022-08-25T21:15:56.585Z,25.96
2022-08-25T21:18:31.396Z,25.87
2022-08-25T21:21:12.426Z,25.89
2022-08-25T21:23:43.675Z,25.91
2022-08-25T21:26:16.854Z,25.90
2022-08-25T21:28:47.743Z,25.85
2022-08-25T21:31:20.704Z,25.84
2022-08-25T21:33:51.193Z,25.83
2022-08-25T21:36:24.679Z,25.84
2022-08-25T21:38:56.988Z,25.81
2022-08-25T21:41:30.983Z,25.79
2022-08-25T21:44:02.359Z,25.75
2022-08-25T21:46:35.864Z,25.74
2022-08-25T21:49:09.462Z,25.69
2022-08-25T21:51:45.396Z,25.66
2022-08-25T21:54:20.615Z,25.61
2022-08-25T21:56:58.544Z,25.52
2022-08-25T21:59:31.936Z,25.52
2022-08-25T22:02:05.488Z,25.47
2022-08-25T22:04:36.796Z,25.47
2022-08-25T22:07:12.462Z,25.47
2022-08-25T22:09:43.353Z,25.49
2022-08-25T22:12:13.717Z,25.47
2022-08-25T22:14:46.009Z,25.44
2022-08-25T22:17:20.940Z,25.40
2022-08-25T22:19:53.531Z,25.39
2022-08-25T22:22:27.140Z,25.32
2022-08-25T22:24:57.389Z,25.25
2022-08-25T22:27:27.860Z,25.20
2022-08-25T22:29:57.813Z,25.13
2022-08-25T22:32:28.099Z,25.07
2022-08-25T22:34:58.294Z,25.06
2022-08-25T22:37:31.693Z,25.01
2022-08-25T22:40:05.813Z,24.95
2022-08-25T22:42:36.151Z,24.92
2022-08-25T22:45:07.222Z,24.88
2022-08-25T22:47:38.343Z,24.84
2022-08-25T22:50:13.125Z,24.81
2022-08-25T22:52:46.281Z,24.72
2022-08-25T22:55:18.322Z,24.72
2022-08-25T22:57:54.679Z,24.71
2022-08-25T23:00:25.527Z,24.71
2022-08-25T23:02:56.356Z,24.69
2022-08-25T23:05:26.664Z,24.68
2022-08-25T23:08:00.707Z,24.67
2022-08-25T23:10:32.589Z,24.62
2022-08-25T23:13:03.422Z,24.56
2022-08-25T23:15:37.618Z,24.52
2022-08-25T23:18:07.923Z,24.42
2022-08-25T23:20:50.582Z,24.40
2022-08-25T23:23:23.381Z,24.38
2022-08-25T23:25:54.295Z,24.34
2022-08-25T23:28:25.324Z,24.31
2022-08-25T23:30:59.344Z,24.29
2022-08-25T23:33:31.341Z,24.23
2022-08-25T23:36:03.121Z,24.18
2022-08-25T23:38:37.133Z,24.11
2022-08-25T23:41:11.280Z,24.09
2022-08-25T23:43:41.460Z,24.03
2022-08-25T23:46:11.885Z,23.99
2022-08-25T23:48:42.558Z,23.97
2022-08-25T23:51:13.576Z,23.99
2022-08-25T23:53:46.460Z,23.96
2022-08-25T23:56:16.624Z,23.97
2022-08-25T23:58:46.795Z,23.96
